createdAt,value
2022-08-05T00:00:00.549Z,21.61
2022-08-05T00:10:03.003Z,21.72
2022-08-05T00:20:06.015Z,21.84
2022-08-05T00:30:11.375Z,21.88
2022-08-05T00:40:14.598Z,21.81
2022-08-05T00:50:20.921Z,21.67
2022-08-05T01:00:25.955Z,21.59
2022-08-05T01:10:35.343Z,21.45
2022-08-05T01:21:08.139Z,21.23
2022-08-05T01:31:30.039Z,21.01
2022-08-05T01:41:36.201Z,20.82
2022-08-05T01:51:40.990Z,20.72
2022-08-05T02:01:57.675Z,20.57
2022-08-05T02:12:01.024Z,20.45
2022-08-05T02:22:26.604Z,20.31
2022-08-05T02:32:32.068Z,20.17
2022-08-05T02:42:36.308Z,20.02
2022-08-05T02:52:38.988Z,19.85
2022-08-05T03:02:45.683Z,19.72
2022-08-05T03:12:47.929Z,19.61
2022-08-05T03:22:57.556Z,19.47
2022-08-05T03:33:01.804Z,19.39
2022-08-05T03:43:58.633Z,19.29
2022-08-05T03:55:52.424Z,19.22
2022-08-05T04:04:10.218Z,19.23
2022-08-05T04:14:18.110Z,19.32
2022-08-05T04:24:22.656Z,19.36
2022-08-05T04:34:33.372Z,19.32
2022-08-05T04:44:37.049Z,19.27
2022-08-05T04:54:39.351Z,19.37
2022-08-05T05:04:44.172Z,19.72
2022-08-05T05:14:51.427Z,20.07
2022-08-05T05:24:58.839Z,20.22
2022-08-05T05:35:03.505Z,20.59
2022-08-05T05:45:09.284Z,21.09
2022-08-05T05:55:16.189Z,21.81
2022-08-05T06:05:20.400Z,22.10
2022-08-05T06:15:25.027Z,22.22
2022-08-05T06:26:12.728Z,22.56
2022-08-05T06:36:12.511Z,22.75
2022-08-05T06:46:15.714Z,22.85
2022-08-05T06:56:26.328Z,22.76
2022-08-05T07:06:33.280Z,23.13
2022-08-05T07:18:02.351Z,23.99
2022-08-05T07:27:16.841Z,24.46
2022-08-05T07:37:20.436Z,25.04
2022-08-05T07:47:25.844Z,25.32
2022-08-05T07:57:55.136Z,25.79
2022-08-05T08:08:00.077Z,25.40
2022-08-05T08:18:09.728Z,26.54
2022-08-05T08:28:36.654Z,27.46
2022-08-05T08:38:41.407Z,27.79
2022-08-05T08:49:06.345Z,27.86
2022-08-05T08:59:14.844Z,28.00
2022-08-05T09:09:34.580Z,28.24
2022-08-05T09:20:01.851Z,28.96
2022-08-05T09:30:07.559Z,29.49
2022-08-05T09:40:34.149Z,28.99
2022-08-05T09:50:44.808Z,29.08
2022-08-05T10:01:15.061Z,28.81
2022-08-05T10:11:31.274Z,29.58
2022-08-05T10:21:40.250Z,29.98
2022-08-05T10:32:54.429Z,30.30
2022-08-05T10:42:33.379Z,31.18
2022-08-05T10:53:03.452Z,31.89
2022-08-05T11:03:25.377Z,32.75
2022-08-05T11:13:57.913Z,32.09
2022-08-05T11:24:30.438Z,31.95
2022-08-05T11:34:51.010Z,30.87
2022-08-05T11:45:05.337Z,31.33
2022-08-05T11:55:10.419Z,32.24
2022-08-05T12:05:36.158Z,31.98
2022-08-05T12:15:49.454Z,32.81
2022-08-05T12:25:56.930Z,33.25
2022-08-05T12:36:01.404Z,33.85
2022-08-05T12:46:06.247Z,34.32
2022-08-05T12:56:35.180Z,34.34
2022-08-05T13:06:51.829Z,34.91
2022-08-05T13:16:59.010Z,35.07
2022-08-05T13:27:01.742Z,35.58
2022-08-05T13:37:04.818Z,36.07
2022-08-05T13:47:10.453Z,36.30
2022-08-05T13:57:49.075Z,36.35
2022-08-05T14:08:03.169Z,37.23
2022-08-05T14:18:17.832Z,37.56
2022-08-05T14:28:27.277Z,37.73
2022-08-05T14:38:34.185Z,37.45
2022-08-05T14:48:38.496Z,38.29
2022-08-05T14:58:47.868Z,38.09
2022-08-05T15:08:58.104Z,37.68
2022-08-05T15:19:03.544Z,36.61
2022-08-05T15:29:06.350Z,35.44
2022-08-05T15:40:59.222Z,34.52
2022-08-05T15:49:53.622Z,33.48
2022-08-05T15:59:57.752Z,32.82
2022-08-05T16:10:01.043Z,32.65
2022-08-05T16:20:11.818Z,32.12
2022-08-05T16:30:23.321Z,31.24
2022-08-05T16:40:30.606Z,30.79
2022-08-05T16:50:33.026Z,30.34
2022-08-05T17:00:37.692Z,29.61
2022-08-05T17:10:41.493Z,29.07
2022-08-05T17:20:46.024Z,28.67
2022-08-05T17:30:52.138Z,28.11
2022-08-05T17:40:56.342Z,27.86
2022-08-05T17:51:00.636Z,27.30
2022-08-05T18:01:04.224Z,26.89
2022-08-05T18:11:11.466Z,26.58
2022-08-05T18:22:08.805Z,26.41
2022-08-05T18:31:55.746Z,26.25
2022-08-05T18:42:06.367Z,25.88
2022-08-05T18:52:33.146Z,25.77
2022-08-05T19:02:38.421Z,25.50
2022-08-05T19:12:41.477Z,25.27
2022-08-05T19:22:45.812Z,25.05
2022-08-05T19:32:48.644Z,24.94
2022-08-05T19:43:04.954Z,24.91
2022-08-05T19:53:10.897Z,24.83
2022-08-05T20:03:15.887Z,24.78
2022-08-05T20:13:30.128Z,24.70
2022-08-05T20:23:51.089Z,24.68
2022-08-05T20:33:57.425Z,24.47
2022-08-05T20:44:17.239Z,24.34
2022-08-05T20:54:26.011Z,24.28
2022-08-05T21:04:48.194Z,24.06
2022-08-05T21:14:54.477Z,23.35
2022-08-05T21:24:57.612Z,22.89
2022-08-05T21:35:16.773Z,22.66
2022-08-05T21:45:51.632Z,22.41
2022-08-05T21:56:04.980Z,22.00
2022-08-05T22:06:10.191Z,21.47
2022-08-05T22:16:41.024Z,20.98
2022-08-05T22:26:54.303Z,20.85
2022-08-05T22:37:00.500Z,20.65
2022-08-05T22:47:07.567Z,20.52
2022-08-05T22:57:10.386Z,20.27
2022-08-05T23:07:13.218Z,20.25
2022-08-05T23:17:34.368Z,20.05
2022-08-05T23:27:57.510Z,19.89
2022-08-05T23:38:03.343Z,19.75
2022-08-05T23:48:06.885Z,19.66
2022-08-05T23:58:31.772Z,19.56
